Time;durP1;ratioP1;P1;durP2;ratioP2;P2;SDS_P1;SDS_P2;PMS_P1;PMS_P2;Temp;Humidity;BMP_temperature;BMP_pressure;BME280_temperature;BME280_humidity;BME280_pressure;Samples;Min_cycle;Max_cycle;Signal;HPM_P1;HPM_P2
2021/10/06 00:01:40;;;;;;;;;;;;;;;11.58;100.00;98245.72;5057590;28;19928;-85
2021/10/06 00:04:07;;;;;;;;;;;;;;;11.71;100.00;98260.50;5057425;28;20307;-85
2021/10/06 00:06:34;;;;;;;;;;;;;;;11.71;100.00;98257.72;5022990;28;20291;-84
2021/10/06 00:09:02;;;;;;;;;;;;;;;11.66;100.00;98241.47;5023206;28;19925;-85
2021/10/06 00:11:29;;;;;;;;;;;;;;;11.56;100.00;98241.78;5055915;28;19928;-85
2021/10/06 00:13:56;;;;;;;;;;;;;;;11.78;100.00;98304.28;5057304;28;19924;-85
2021/10/06 00:16:24;;;;;;;;;;;;;;;11.91;100.00;98283.44;5039552;28;19928;-85
2021/10/06 00:18:51;;;;;;;;;;;;;;;11.60;100.00;98282.41;5039273;28;19925;-85
2021/10/06 00:21:17;;;;;;;;;;;;;;;11.69;100.00;98279.75;5072634;28;19932;-85
2021/10/06 00:23:45;;;;;;;;;;;;;;;11.61;100.00;98258.81;5055724;28;19925;-85
2021/10/06 00:26:12;;;;;;;;;;;;;;;11.58;100.00;98282.09;5057128;28;19988;-85
2021/10/06 00:28:39;;;;;;;;;;;;;;;11.70;100.00;98281.34;5039128;28;19925;-85
2021/10/06 00:31:06;;;;;;;;;;;;;;;11.62;100.00;98295.97;5023006;28;20291;-85
2021/10/06 00:33:33;;;;;;;;;;;;;;;11.62;100.00;98291.19;5038848;28;20100;-85
2021/10/06 00:36:00;;;;;;;;;;;;;;;11.61;100.00;98292.41;5039271;28;19971;-85
2021/10/06 00:38:28;;;;;;;;;;;;;;;11.58;100.00;98298.88;5038849;28;19924;-85
2021/10/06 00:40:55;;;;;;;;;;;;;;;11.57;100.00;98302.91;5038566;28;20337;-85
2021/10/06 00:43:23;;;;;;;;;;;;;;;11.83;100.00;98301.69;5035966;28;19925;-84
2021/10/06 00:45:50;;;;;;;;;;;;;;;11.47;100.00;98308.84;5038570;28;19929;-85
2021/10/06 00:48:17;;;;;;;;;;;;;;;11.46;100.00;98293.28;5018752;28;19932;-85
2021/10/06 00:50:44;;;;;;;;;;;;;;;11.64;100.00;98319.50;5028995;28;19975;-85
2021/10/06 00:53:11;;;;;;;;;;;;;;;11.38;100.00;98295.53;5038901;28;19964;-85
2021/10/06 00:55:39;;;;;;;;;;;;;;;11.35;100.00;98327.19;5022846;28;19932;-85
2021/10/06 00:58:06;;;;;;;;;;;;;;;11.24;100.00;98332.31;5008514;28;19929;-84
2021/10/06 01:00:34;;;;;;;;;;;;;;;11.40;100.00;98312.66;5022489;28;19924;-85
2021/10/06 01:03:01;;;;;;;;;;;;;;;11.48;100.00;98346.78;5038358;28;20004;-85
2021/10/06 01:05:32;;;;;;;;;;;;;;;11.22;100.00;98336.78;5005486;28;19940;-85
2021/10/06 01:07:59;;;;;;;;;;;;;;;11.31;100.00;98354.50;5055003;28;20292;-84
2021/10/06 01:10:27;;;;;;;;;;;;;;;11.22;100.00;98345.97;5038372;28;19932;-85
2021/10/06 01:12:54;;;;;;;;;;;;;;;11.29;100.00;98351.34;5021914;28;19925;-85
2021/10/06 01:15:23;;;;;;;;;;;;;;;11.12;100.00;98361.03;5019100;28;20376;-85
2021/10/06 01:17:50;;;;;;;;;;;;;;;11.25;100.00;98378.63;5044889;28;19936;-84
2021/10/06 01:20:18;;;;;;;;;;;;;;;11.25;100.00;98380.63;5035793;28;19960;-85
2021/10/06 01:22:45;;;;;;;;;;;;;;;11.12;100.00;98374.25;5056021;28;19932;-85
2021/10/06 01:25:13;;;;;;;;;;;;;;;11.17;100.00;98382.06;5022026;28;19931;-85
2021/10/06 01:27:41;;;;;;;;;;;;;;;11.06;100.00;98362.03;5021702;28;19932;-84
2021/10/06 01:30:10;;;;;;;;;;;;;;;11.00;100.00;98392.53;5005721;28;19935;-84
2021/10/06 01:32:38;;;;;;;;;;;;;;;11.11;100.00;98362.28;5038402;28;19925;-85
2021/10/06 01:35:06;;;;;;;;;;;;;;;11.06;100.00;98387.19;5038354;28;19924;-85
2021/10/06 01:37:34;;;;;;;;;;;;;;;11.01;100.00;98382.16;5021317;28;19976;-84
2021/10/06 01:40:02;;;;;;;;;;;;;;;11.06;100.00;98399.16;5012164;28;19925;-85
2021/10/06 01:42:29;;;;;;;;;;;;;;;11.03;100.00;98388.84;5033759;28;19924;-85
2021/10/06 01:44:56;;;;;;;;;;;;;;;10.92;100.00;98416.31;5022242;28;19947;-85
2021/10/06 01:47:24;;;;;;;;;;;;;;;10.86;100.00;98406.91;5047621;28;19925;-85
2021/10/06 01:49:52;;;;;;;;;;;;;;;11.22;100.00;98401.91;5073831;28;19924;-84
2021/10/06 01:52:20;;;;;;;;;;;;;;;11.12;100.00;98405.75;5075585;28;19925;-85
2021/10/06 01:54:50;;;;;;;;;;;;;;;10.96;100.00;98428.19;5048438;28;19969;-85
2021/10/06 01:57:17;;;;;;;;;;;;;;;11.09;100.00;98419.88;5065428;28;19931;-84
2021/10/06 01:59:45;;;;;;;;;;;;;;;11.01;100.00;98424.88;5069107;28;19959;-84
2021/10/06 02:02:12;;;;;;;;;;;;;;;11.01;100.00;98430.47;5040909;28;19931;-84
2021/10/06 02:04:39;;;;;;;;;;;;;;;11.22;100.00;98435.44;5049904;28;20338;-85
2021/10/06 02:07:06;;;;;;;;;;;;;;;11.12;100.00;98436.53;5070096;28;20406;-84
2021/10/06 02:09:33;;;;;;;;;;;;;;;11.04;100.00;98457.53;5051730;28;20382;-85
2021/10/06 02:12:01;;;;;;;;;;;;;;;11.01;100.00;98457.63;5043821;28;20011;-84
2021/10/06 02:14:29;;;;;;;;;;;;;;;11.03;100.00;98472.72;5053673;28;19924;-84
2021/10/06 02:16:56;;;;;;;;;;;;;;;10.81;100.00;98433.38;5086851;28;19924;-85
2021/10/06 02:19:23;;;;;;;;;;;;;;;11.05;100.00;98447.13;5048803;28;19924;-85
2021/10/06 02:21:50;;;;;;;;;;;;;;;11.02;100.00;98446.00;5068244;28;20086;-85
2021/10/06 02:24:17;;;;;;;;;;;;;;;11.06;100.00;98471.84;5057605;28;20003;-85
2021/10/06 02:26:44;;;;;;;;;;;;;;;11.44;100.00;98469.97;5049524;28;19925;-85
2021/10/06 02:29:11;;;;;;;;;;;;;;;11.22;100.00;98480.19;5053248;28;19939;-84
2021/10/06 02:31:38;;;;;;;;;;;;;;;11.43;100.00;98479.59;5096607;28;19924;-85
2021/10/06 02:34:06;;;;;;;;;;;;;;;11.24;100.00;98482.53;5083709;28;19932;-85
2021/10/06 02:36:33;;;;;;;;;;;;;;;11.45;100.00;98488.31;5056798;28;19924;-84
2021/10/06 02:39:00;;;;;;;;;;;;;;;11.29;100.00;98474.41;5077052;28;19935;-84
2021/10/06 02:41:27;;;;;;;;;;;;;;;11.26;100.00;98497.66;5104607;28;20359;-84
2021/10/06 02:43:54;;;;;;;;;;;;;;;11.10;100.00;98505.28;5080844;28;19925;-84
2021/10/06 02:46:21;;;;;;;;;;;;;;;11.40;100.00;98514.03;5078286;28;19930;-84
2021/10/06 02:48:49;;;;;;;;;;;;;;;11.25;100.00;98517.66;5084249;28;19924;-84
2021/10/06 02:51:16;;;;;;;;;;;;;;;11.56;100.00;98511.19;5096721;28;19924;-84
2021/10/06 02:53:43;;;;;;;;;;;;;;;11.38;100.00;98505.28;5059729;28;19932;-85
2021/10/06 02:56:10;;;;;;;;;;;;;;;11.29;100.00;98524.72;5076413;28;19928;-85
2021/10/06 02:58:37;;;;;;;;;;;;;;;11.53;100.00;98534.44;5060889;28;19930;-84
2021/10/06 03:01:04;;;;;;;;;;;;;;;11.08;100.00;98539.28;5065711;28;20379;-84
2021/10/06 03:03:32;;;;;;;;;;;;;;;11.26;100.00;98536.00;5047738;28;19931;-85
2021/10/06 03:05:59;;;;;;;;;;;;;;;11.42;100.00;98545.13;5088463;28;19946;-84
2021/10/06 03:08:26;;;;;;;;;;;;;;;11.23;100.00;98537.69;5077949;28;19955;-84
2021/10/06 03:10:53;;;;;;;;;;;;;;;11.40;100.00;98542.00;5078598;28;19931;-84
2021/10/06 03:13:20;;;;;;;;;;;;;;;11.12;100.00;98548.34;5029176;28;19929;-85
2021/10/06 03:15:48;;;;;;;;;;;;;;;10.85;100.00;98550.66;5071334;28;19924;-84
2021/10/06 03:18:15;;;;;;;;;;;;;;;11.17;100.00;98547.84;5028584;28;20556;-84
2021/10/06 03:20:42;;;;;;;;;;;;;;;11.19;100.00;98548.19;5090272;28;20013;-84
2021/10/06 03:23:09;;;;;;;;;;;;;;;11.07;100.00;98553.69;5094206;28;19931;-86
2021/10/06 03:26:01;;;;;;;;;;;;;;;11.39;100.00;98567.63;5087835;28;19932;-86
2021/10/06 03:28:29;;;;;;;;;;;;;;;11.70;100.00;98572.38;5048525;28;19931;-87
2021/10/06 03:30:57;;;;;;;;;;;;;;;11.51;100.00;98569.69;5082341;28;19946;-86
2021/10/06 03:33:24;;;;;;;;;;;;;;;11.62;100.00;98556.19;5076173;28;19947;-84
2021/10/06 03:35:51;;;;;;;;;;;;;;;11.45;100.00;98583.41;5071258;28;20372;-85
2021/10/06 03:38:18;;;;;;;;;;;;;;;11.37;100.00;98582.06;5066601;28;20530;-84
2021/10/06 03:40:45;;;;;;;;;;;;;;;11.02;100.00;98560.59;5069887;28;20026;-85
2021/10/06 03:43:13;;;;;;;;;;;;;;;11.21;100.00;98578.50;5072342;28;20295;-85
2021/10/06 03:45:40;;;;;;;;;;;;;;;11.29;100.00;98579.88;5055354;28;20398;-85
2021/10/06 03:48:07;;;;;;;;;;;;;;;11.26;100.00;98586.34;5068843;28;19924;-84
2021/10/06 03:50:35;;;;;;;;;;;;;;;11.23;100.00;98590.81;5041674;28;20295;-85
2021/10/06 03:53:02;;;;;;;;;;;;;;;11.09;100.00;98609.97;5071182;28;20334;-84
2021/10/06 03:55:29;;;;;;;;;;;;;;;11.54;100.00;98605.94;5067653;28;20815;-85
2021/10/06 03:57:57;;;;;;;;;;;;;;;11.33;100.00;98617.69;5061570;28;19928;-84
2021/10/06 04:00:25;;;;;;;;;;;;;;;11.24;100.00;98625.16;5086908;28;19946;-85
2021/10/06 04:02:55;;;;;;;;;;;;;;;11.43;100.00;98613.06;5055556;28;20368;-84
2021/10/06 04:05:23;;;;;;;;;;;;;;;11.46;100.00;98624.16;5053189;28;19931;-85
2021/10/06 04:07:50;;;;;;;;;;;;;;;11.30;100.00;98638.16;5078659;28;19939;-85
2021/10/06 04:10:17;;;;;;;;;;;;;;;11.44;100.00;98631.41;5047152;28;19924;-85
2021/10/06 04:12:51;;;;;;;;;;;;;;;11.46;100.00;98632.56;5092597;28;19935;-84
2021/10/06 04:15:19;;;;;;;;;;;;;;;11.62;100.00;98637.31;5080527;28;19924;-84
2021/10/06 04:17:47;;;;;;;;;;;;;;;11.87;100.00;98652.28;5039961;28;19954;-84
2021/10/06 04:20:16;;;;;;;;;;;;;;;11.06;100.00;98650.00;5053363;28;19924;-85
2021/10/06 04:22:44;;;;;;;;;;;;;;;11.60;100.00;98660.16;5062295;28;19931;-84
2021/10/06 04:25:11;;;;;;;;;;;;;;;11.15;100.00;98669.72;5075560;28;19928;-84
2021/10/06 04:27:38;;;;;;;;;;;;;;;11.26;100.00;98668.25;5055098;28;20026;-84
2021/10/06 04:30:06;;;;;;;;;;;;;;;11.15;100.00;98676.09;5072019;28;19931;-84
2021/10/06 04:32:35;;;;;;;;;;;;;;;11.30;100.00;98670.97;5086475;28;20367;-84
2021/10/06 04:35:02;;;;;;;;;;;;;;;11.45;100.00;98692.50;5073687;28;19924;-84
2021/10/06 04:37:29;;;;;;;;;;;;;;;11.21;100.00;98679.94;5072088;28;19932;-84
2021/10/06 04:39:56;;;;;;;;;;;;;;;11.16;100.00;98697.25;5071547;28;20490;-84
2021/10/06 04:42:24;;;;;;;;;;;;;;;11.20;100.00;98706.34;5025451;28;20345;-84
2021/10/06 04:44:51;;;;;;;;;;;;;;;11.20;100.00;98711.13;5057075;28;19929;-84
2021/10/06 04:47:18;;;;;;;;;;;;;;;11.13;100.00;98714.91;5070783;28;19924;-84
2021/10/06 04:49:45;;;;;;;;;;;;;;;11.26;100.00;98734.56;5076639;28;19934;-84
2021/10/06 04:52:12;;;;;;;;;;;;;;;11.16;100.00;98739.22;5077044;28;20375;-84
2021/10/06 04:54:39;;;;;;;;;;;;;;;11.48;100.00;98750.38;5042203;28;20299;-84
2021/10/06 04:57:06;;;;;;;;;;;;;;;11.44;100.00;98755.28;5068734;28;20279;-84
2021/10/06 04:59:33;;;;;;;;;;;;;;;11.52;100.00;98769.91;5070889;28;19931;-84
2021/10/06 05:02:01;;;;;;;;;;;;;;;11.56;100.00;98770.59;5110035;28;20398;-84
2021/10/06 05:04:28;;;;;;;;;;;;;;;11.81;100.00;98774.41;5058617;28;19931;-84
2021/10/06 05:06:56;;;;;;;;;;;;;;;11.48;100.00;98772.78;5056499;28;19973;-85
2021/10/06 05:09:24;;;;;;;;;;;;;;;11.16;100.00;98780.34;5071517;28;19931;-84
2021/10/06 05:11:51;;;;;;;;;;;;;;;11.59;100.00;98778.91;5089171;28;19934;-84
2021/10/06 05:14:18;;;;;;;;;;;;;;;11.59;100.00;98778.91;5070229;28;20011;-84
2021/10/06 05:16:45;;;;;;;;;;;;;;;11.32;100.00;98794.34;5058602;28;19924;-84
2021/10/06 05:19:12;;;;;;;;;;;;;;;11.22;100.00;98799.00;5058325;28;19925;-84
2021/10/06 05:21:40;;;;;;;;;;;;;;;11.52;100.00;98795.88;5068506;28;19924;-85
2021/10/06 05:24:07;;;;;;;;;;;;;;;11.31;100.00;98801.97;5047736;28;20007;-85
2021/10/06 05:26:34;;;;;;;;;;;;;;;11.43;100.00;98820.88;5041743;28;20019;-84
2021/10/06 05:29:01;;;;;;;;;;;;;;;11.37;100.00;98838.59;5089689;28;19928;-84
2021/10/06 05:31:28;;;;;;;;;;;;;;;11.43;100.00;98840.44;5085087;28;20065;-84
2021/10/06 05:33:55;;;;;;;;;;;;;;;11.18;100.00;98847.81;5055195;28;19924;-84
2021/10/06 05:36:23;;;;;;;;;;;;;;;11.36;100.00;98854.59;5058122;28;19924;-84
2021/10/06 05:38:51;;;;;;;;;;;;;;;11.29;100.00;98854.75;5069685;28;19947;-85
2021/10/06 05:41:18;;;;;;;;;;;;;;;11.21;100.00;98864.50;5041008;28;19931;-84
2021/10/06 05:43:45;;;;;;;;;;;;;;;11.54;100.00;98860.56;5064649;28;19974;-84
2021/10/06 05:46:11;;;;;;;;;;;;;;;11.19;100.00;98857.78;5075606;28;20377;-84
2021/10/06 05:48:38;;;;;;;;;;;;;;;11.47;100.00;98859.94;5077545;28;19931;-84
2021/10/06 05:51:05;;;;;;;;;;;;;;;11.17;100.00;98869.41;5076818;28;19924;-84
2021/10/06 05:53:32;;;;;;;;;;;;;;;11.57;100.00;98884.88;5070140;28;19925;-84
2021/10/06 05:55:59;;;;;;;;;;;;;;;11.63;100.00;98880.38;5075416;28;19925;-84
2021/10/06 05:58:27;;;;;;;;;;;;;;;11.56;100.00;98886.09;5043811;28;19932;-84
2021/10/06 06:00:55;;;;;;;;;;;;;;;11.63;100.00;98893.59;5081371;28;19924;-84
2021/10/06 06:03:22;;;;;;;;;;;;;;;11.93;100.00;98893.28;5037281;28;20272;-85
2021/10/06 06:05:49;;;;;;;;;;;;;;;11.36;100.00;98893.75;5069074;28;19951;-85
2021/10/06 06:08:17;;;;;;;;;;;;;;;11.65;100.00;98905.91;5091321;28;20053;-85
2021/10/06 06:10:44;;;;;;;;;;;;;;;11.70;100.00;98908.22;5060075;28;19994;-85
2021/10/06 06:13:11;;;;;;;;;;;;;;;11.12;100.00;98897.88;5066855;28;19935;-84
2021/10/06 06:15:38;;;;;;;;;;;;;;;11.00;100.00;98909.69;5057203;28;19925;-84
2021/10/06 06:18:05;;;;;;;;;;;;;;;11.01;100.00;98927.25;5068556;28;19931;-84
2021/10/06 06:20:32;;;;;;;;;;;;;;;10.98;100.00;98940.88;5058399;28;20368;-87
2021/10/06 06:23:00;;;;;;;;;;;;;;;10.81;100.00;98946.81;5084876;28;19988;-82
2021/10/06 06:25:27;;;;;;;;;;;;;;;10.35;100.00;98958.00;5080744;28;19924;-82
2021/10/06 06:27:54;;;;;;;;;;;;;;;10.80;100.00;98957.19;5107844;28;19963;-82
2021/10/06 06:30:21;;;;;;;;;;;;;;;11.04;100.00;98965.53;5073998;28;19925;-84
2021/10/06 06:32:48;;;;;;;;;;;;;;;11.06;100.00;98966.69;5063254;28;19930;-82
2021/10/06 06:35:15;;;;;;;;;;;;;;;10.48;100.00;98967.38;5089313;28;19932;-83
2021/10/06 06:37:42;;;;;;;;;;;;;;;11.19;100.00;98967.66;5078827;28;19931;-83
2021/10/06 06:40:10;;;;;;;;;;;;;;;11.01;100.00;98972.00;5114792;28;20398;-83
2021/10/06 06:42:37;;;;;;;;;;;;;;;10.35;100.00;98975.56;5097068;28;19931;-83
2021/10/06 06:45:05;;;;;;;;;;;;;;;10.77;100.00;98988.00;5115426;28;19931;-82
2021/10/06 06:47:34;;;;;;;;;;;;;;;10.81;100.00;98992.31;5101823;28;20007;-83
2021/10/06 06:50:01;;;;;;;;;;;;;;;11.20;100.00;99002.78;5096940;28;19924;-83
2021/10/06 06:52:30;;;;;;;;;;;;;;;11.30;100.00;98989.81;5100750;28;20343;-83
2021/10/06 06:54:57;;;;;;;;;;;;;;;11.08;100.00;98983.84;5113160;28;19955;-82
2021/10/06 06:57:25;;;;;;;;;;;;;;;10.69;100.00;98994.94;5046988;28;19931;-82
2021/10/06 06:59:52;;;;;;;;;;;;;;;10.65;100.00;99002.56;5105515;28;20333;-82
2021/10/06 07:02:19;;;;;;;;;;;;;;;10.64;100.00;99014.97;5043536;28;20333;-82
2021/10/06 07:04:47;;;;;;;;;;;;;;;10.84;100.00;99007.44;5059034;28;20368;-82
2021/10/06 07:07:15;;;;;;;;;;;;;;;10.69;100.00;99000.53;5079780;28;19924;-83
2021/10/06 07:09:51;;;;;;;;;;;;;;;10.70;100.00;99007.69;5109130;28;19934;-83
2021/10/06 07:12:19;;;;;;;;;;;;;;;10.73;100.00;99021.63;5114762;28;19931;-82
2021/10/06 07:14:47;;;;;;;;;;;;;;;11.09;100.00;99021.75;5086895;28;20286;-83
2021/10/06 07:17:14;;;;;;;;;;;;;;;10.80;100.00;99017.88;5110093;28;19924;-82
2021/10/06 07:19:41;;;;;;;;;;;;;;;10.89;100.00;99026.50;5114561;28;20394;-83
2021/10/06 07:22:08;;;;;;;;;;;;;;;10.75;100.00;99021.19;5114889;28;20243;-82
2021/10/06 07:24:35;;;;;;;;;;;;;;;10.49;100.00;99019.22;5059477;28;19931;-82
2021/10/06 07:27:03;;;;;;;;;;;;;;;10.82;100.00;99026.66;5059453;28;19924;-82
2021/10/06 07:29:30;;;;;;;;;;;;;;;10.80;100.00;99020.69;5076675;28;20080;-82
2021/10/06 07:31:57;;;;;;;;;;;;;;;10.80;100.00;99035.44;5070344;28;19928;-82
2021/10/06 07:34:24;;;;;;;;;;;;;;;11.23;100.00;99052.25;5114179;28;20379;-83
2021/10/06 07:37:01;;;;;;;;;;;;;;;10.99;100.00;99047.91;5092127;28;20081;-83
2021/10/06 07:40:27;;;;;;;;;;;;;;;11.04;100.00;99061.41;4984191;28;19933;-79
2021/10/06 07:43:16;;;;;;;;;;;;;;;11.16;100.00;99057.19;4995244;28;19929;-83
2021/10/06 07:46:33;;;;;;;;;;;;;;;11.09;100.00;99062.91;5008936;28;19926;-83
2021/10/06 07:56:26;;;;;;;;;;;;;;;12.95;100.00;99051.22;5013161;28;20274;-86
2021/10/06 07:58:53;;;;;;;;;;;;;;;13.67;100.00;99044.06;4997845;28;19925;-87
2021/10/06 08:01:28;;;;;;;;;;;;;;;13.51;100.00;99041.31;4998668;28;20015;-85
2021/10/06 08:09:07;;;;;;;;;;;;;;;14.07;100.00;99053.72;4995854;28;19972;-86
2021/10/06 08:11:36;;;;;;;;;;;;;;;13.18;100.00;99067.09;4978203;28;19933;-87
2021/10/06 08:14:05;;;;;;;;;;;;;;;13.40;100.00;99065.31;4962208;28;20300;-87
2021/10/06 08:16:33;;;;;;;;;;;;;;;13.60;100.00;99063.91;5020534;28;20010;-84
2021/10/06 08:19:00;;;;;;;;;;;;;;;13.58;100.00;99057.19;5060446;28;20428;-86
2021/10/06 08:21:29;;;;;;;;;;;;;;;13.29;100.00;99064.78;5042833;28;19931;-86
2021/10/06 08:23:59;;;;;;;;;;;;;;;14.08;100.00;99063.72;5108979;28;19924;-85
2021/10/06 08:26:27;;;;;;;;;;;;;;;14.85;100.00;99068.94;5081346;28;19974;-85
2021/10/06 08:28:54;;;;;;;;;;;;;;;14.31;100.00;99076.72;5092500;28;19924;-85
2021/10/06 08:31:23;;;;;;;;;;;;;;;13.83;100.00;99076.91;5032236;28;20355;-85
2021/10/06 08:33:50;;;;;;;;;;;;;;;13.75;100.00;99081.16;5089074;28;19925;-84
2021/10/06 08:36:18;;;;;;;;;;;;;;;13.58;100.00;99068.41;5062229;28;19924;-86
2021/10/06 08:38:50;;;;;;;;;;;;;;;13.54;100.00;99087.38;5070710;28;19924;-86
2021/10/06 08:41:18;;;;;;;;;;;;;;;13.70;100.00;99085.31;5065609;28;19925;-87
2021/10/06 08:43:49;;;;;;;;;;;;;;;13.81;100.00;99090.63;5047051;28;20368;-87
2021/10/06 08:46:17;;;;;;;;;;;;;;;13.17;100.00;99085.16;5062283;28;19956;-88
2021/10/06 08:48:44;;;;;;;;;;;;;;;13.35;100.00;99097.50;5050902;28;19931;-86
2021/10/06 08:51:11;;;;;;;;;;;;;;;13.38;100.00;99093.00;5069914;28;19935;-85
2021/10/06 08:53:45;;;;;;;;;;;;;;;13.10;100.00;99093.75;5096761;28;19924;-86
2021/10/06 08:56:12;;;;;;;;;;;;;;;13.10;100.00;99105.00;5048109;28;19929;-85
2021/10/06 08:58:40;;;;;;;;;;;;;;;12.72;100.00;99097.06;5096882;28;20397;-84
2021/10/06 09:01:07;;;;;;;;;;;;;;;13.00;100.00;99100.41;5082820;28;19924;-82
2021/10/06 09:03:36;;;;;;;;;;;;;;;13.17;100.00;99107.59;5095562;28;19924;-83
2021/10/06 09:06:03;;;;;;;;;;;;;;;13.09;100.00;99131.44;5071436;28;19925;-88
2021/10/06 09:08:33;;;;;;;;;;;;;;;12.81;100.00;99132.13;5085721;28;19925;-89
2021/10/06 09:11:03;;;;;;;;;;;;;;;12.88;100.00;99146.75;5059205;28;19924;-90
2021/10/06 09:13:33;;;;;;;;;;;;;;;13.15;100.00;99146.50;5039328;28;19930;-90
2021/10/06 09:16:00;;;;;;;;;;;;;;;13.02;100.00;99138.03;5062208;28;19924;-90
2021/10/06 09:18:28;;;;;;;;;;;;;;;12.88;100.00;99127.13;5056862;28;19923;-90
2021/10/06 09:20:57;;;;;;;;;;;;;;;12.77;100.00;99118.97;5056470;28;19924;-90
2021/10/06 09:23:25;;;;;;;;;;;;;;;12.98;100.00;99142.13;5025068;28;19924;-90
2021/10/06 09:25:57;;;;;;;;;;;;;;;12.84;100.00;99142.47;5058698;28;19993;-89
2021/10/06 09:28:32;;;;;;;;;;;;;;;13.10;100.00;99141.44;5043753;28;20275;-90
2021/10/06 09:31:02;;;;;;;;;;;;;;;13.31;100.00;99150.13;5042961;28;20015;-91
2021/10/06 09:33:37;;;;;;;;;;;;;;;13.46;100.00;99153.34;5041174;28;20019;-90
2021/10/06 09:36:09;;;;;;;;;;;;;;;13.08;100.00;99146.69;5030776;28;20382;-88
2021/10/06 09:38:37;;;;;;;;;;;;;;;13.16;100.00;99142.50;5061684;28;19924;-90
2021/10/06 09:41:23;;;;;;;;;;;;;;;13.44;100.00;99153.00;5024456;28;19928;-89
2021/10/06 09:44:01;;;;;;;;;;;;;;;13.87;100.00;99175.91;5081067;28;19927;-89
2021/10/06 09:46:39;;;;;;;;;;;;;;;13.31;100.00;99160.56;5061033;28;19985;-89
2021/10/06 09:49:25;;;;;;;;;;;;;;;13.42;100.00;99189.16;5043115;28;19925;-89
2021/10/06 09:51:54;;;;;;;;;;;;;;;13.28;100.00;99183.88;5044082;28;20016;-90
2021/10/06 09:54:22;;;;;;;;;;;;;;;13.56;100.00;99195.19;5040575;28;19950;-91
2021/10/06 09:56:50;;;;;;;;;;;;;;;14.01;100.00;99198.78;5065983;28;19924;-89
2021/10/06 09:59:17;;;;;;;;;;;;;;;14.15;100.00;99201.19;5056429;28;19968;-89
2021/10/06 10:01:46;;;;;;;;;;;;;;;13.77;100.00;99199.44;5093506;28;19924;-88
2021/10/06 10:04:13;;;;;;;;;;;;;;;14.57;100.00;99202.00;5044176;28;19924;-89
2021/10/06 10:06:41;;;;;;;;;;;;;;;15.13;100.00;99189.00;5056875;28;19958;-90
2021/10/06 10:09:09;;;;;;;;;;;;;;;14.82;100.00;99193.63;5055503;28;19925;-90
2021/10/06 10:11:37;;;;;;;;;;;;;;;14.91;100.00;99196.53;5051755;28;19930;-89
2021/10/06 10:14:05;;;;;;;;;;;;;;;14.96;100.00;99184.72;5059895;28;20007;-90
2021/10/06 10:16:33;;;;;;;;;;;;;;;15.00;100.00;99188.22;5043978;28;19953;-89
2021/10/06 10:19:04;;;;;;;;;;;;;;;15.20;100.00;99193.59;5060765;28;19924;-90
2021/10/06 10:21:31;;;;;;;;;;;;;;;15.44;100.00;99187.19;5034527;28;19924;-90
2021/10/06 10:24:09;;;;;;;;;;;;;;;15.59;100.00;99187.50;5036275;28;19948;-89
2021/10/06 10:26:36;;;;;;;;;;;;;;;14.77;100.00;99191.34;5043814;28;19925;-90
2021/10/06 10:29:23;;;;;;;;;;;;;;;14.24;100.00;99209.00;5060636;28;19934;-90
2021/10/06 10:32:01;;;;;;;;;;;;;;;14.29;100.00;99198.00;5059878;28;19924;-89
2021/10/06 10:34:47;;;;;;;;;;;;;;;14.37;100.00;99212.66;5063479;28;19950;-89
2021/10/06 10:37:14;;;;;;;;;;;;;;;14.54;100.00;99214.13;5063260;28;19923;-89
2021/10/06 10:39:42;;;;;;;;;;;;;;;14.37;100.00;99221.84;5079637;28;19923;-89
2021/10/06 10:42:10;;;;;;;;;;;;;;;14.20;100.00;99225.16;5063554;28;19930;-91
2021/10/06 10:44:39;;;;;;;;;;;;;;;13.86;100.00;99219.25;5043672;28;19931;-90
2021/10/06 10:47:07;;;;;;;;;;;;;;;14.94;100.00;99226.59;5069710;28;19923;-90
2021/10/06 10:49:43;;;;;;;;;;;;;;;15.01;100.00;99220.72;5043198;28;19930;-89
2021/10/06 10:52:10;;;;;;;;;;;;;;;14.90;100.00;99220.28;5041849;28;19924;-90
2021/10/06 10:54:42;;;;;;;;;;;;;;;15.02;100.00;99224.34;5047532;28;19931;-90
2021/10/06 10:57:18;;;;;;;;;;;;;;;14.55;100.00;99220.56;5042807;28;19930;-91
2021/10/06 10:59:47;;;;;;;;;;;;;;;15.12;100.00;99220.41;5056562;28;19923;-92
2021/10/06 11:02:19;;;;;;;;;;;;;;;14.66;100.00;99238.69;5047263;28;19924;-89
2021/10/06 11:04:53;;;;;;;;;;;;;;;15.29;100.00;99231.09;5063096;28;19923;-90
2021/10/06 11:07:21;;;;;;;;;;;;;;;14.92;100.00;99239.53;5062378;28;20446;-91
2021/10/06 11:09:50;;;;;;;;;;;;;;;15.39;100.00;99244.06;5076485;28;19924;-91
2021/10/06 11:12:20;;;;;;;;;;;;;;;15.16;100.00;99237.97;5076299;28;20432;-91
2021/10/06 11:14:49;;;;;;;;;;;;;;;15.27;100.00;99244.03;5039489;28;19925;-90
2021/10/06 11:17:17;;;;;;;;;;;;;;;15.54;100.00;99248.00;5043283;28;19931;-90
2021/10/06 11:19:45;;;;;;;;;;;;;;;15.42;100.00;99242.41;5079494;28;19928;-90
2021/10/06 11:22:38;;;;;;;;;;;;;;;15.20;100.00;99238.63;5062167;28;19931;-91
2021/10/06 11:25:06;;;;;;;;;;;;;;;15.36;100.00;99244.13;5052081;28;19924;-90
2021/10/06 11:27:43;;;;;;;;;;;;;;;15.32;100.00;99244.28;5046195;28;19924;-90
2021/10/06 11:30:11;;;;;;;;;;;;;;;15.57;100.00;99247.09;5026334;28;19946;-90
2021/10/06 11:32:47;;;;;;;;;;;;;;;15.59;100.00;99255.88;5042405;28;19931;-91
2021/10/06 11:35:15;;;;;;;;;;;;;;;15.72;100.00;99253.06;5069468;28;19946;-90
2021/10/06 11:37:43;;;;;;;;;;;;;;;15.52;100.00;99249.69;5060797;28;20341;-91
2021/10/06 11:40:11;;;;;;;;;;;;;;;15.86;100.00;99249.72;5034553;28;19945;-90
2021/10/06 11:42:38;;;;;;;;;;;;;;;15.90;100.00;99247.59;5079403;28;19924;-90
2021/10/06 11:45:06;;;;;;;;;;;;;;;15.66;100.00;99278.16;5062067;28;19965;-91
2021/10/06 11:47:36;;;;;;;;;;;;;;;15.77;100.00;99275.78;5035464;28;19931;-91
2021/10/06 11:50:04;;;;;;;;;;;;;;;15.40;100.00;99262.56;5056882;28;19968;-89
2021/10/06 11:52:31;;;;;;;;;;;;;;;15.66;100.00;99283.81;5045669;28;19924;-91
2021/10/06 11:54:58;;;;;;;;;;;;;;;15.85;100.00;99279.97;5071551;28;19928;-91
2021/10/06 11:57:25;;;;;;;;;;;;;;;16.25;100.00;99269.69;5042626;28;19925;-89
2021/10/06 11:59:52;;;;;;;;;;;;;;;15.95;100.00;99278.78;5022614;28;20292;-90
2021/10/06 12:02:23;;;;;;;;;;;;;;;15.60;100.00;99291.25;5077303;28;20312;-90
2021/10/06 12:04:51;;;;;;;;;;;;;;;15.91;100.00;99297.88;5062494;28;19930;-92
2021/10/06 12:07:20;;;;;;;;;;;;;;;15.62;100.00;99300.03;5026867;28;19924;-91
2021/10/06 12:09:49;;;;;;;;;;;;;;;15.31;100.00;99324.31;5029181;28;19954;-91
2021/10/06 12:12:22;;;;;;;;;;;;;;;15.74;100.00;99310.50;5038886;28;19924;-92
2021/10/06 12:14:59;;;;;;;;;;;;;;;16.47;100.00;99308.44;5055542;28;19925;-90
2021/10/06 12:17:28;;;;;;;;;;;;;;;16.50;100.00;99322.41;5075996;28;19924;-90
2021/10/06 12:20:00;;;;;;;;;;;;;;;16.57;100.00;99321.38;5049222;28;20405;-90
2021/10/06 12:22:37;;;;;;;;;;;;;;;16.78;100.00;99323.44;5056131;28;19931;-91
2021/10/06 12:25:09;;;;;;;;;;;;;;;16.82;100.00;99321.25;5068672;28;19924;-90
2021/10/06 12:27:38;;;;;;;;;;;;;;;17.06;100.00;99334.44;5055744;28;20453;-91
2021/10/06 12:30:08;;;;;;;;;;;;;;;17.10;100.00;99335.09;5012041;28;19935;-92
2021/10/06 12:32:36;;;;;;;;;;;;;;;17.10;100.00;99326.63;5034589;28;20263;-90
2021/10/06 12:35:08;;;;;;;;;;;;;;;16.90;100.00;99336.69;5042299;28;20014;-90
2021/10/06 12:37:45;;;;;;;;;;;;;;;17.07;100.00;99338.81;5024483;28;20303;-90
2021/10/06 12:40:29;;;;;;;;;;;;;;;17.18;100.00;99325.09;5042285;28;19932;-92
2021/10/06 12:43:02;;;;;;;;;;;;;;;17.32;100.00;99326.59;5075684;28;19931;-90
2021/10/06 12:45:31;;;;;;;;;;;;;;;16.77;100.00;99333.13;5058483;28;19925;-89
2021/10/06 12:47:59;;;;;;;;;;;;;;;16.68;100.00;99336.66;5061540;28;19974;-90
2021/10/06 12:50:26;;;;;;;;;;;;;;;16.23;100.00;99333.41;5062449;28;19948;-90
2021/10/06 12:52:53;;;;;;;;;;;;;;;16.08;100.00;99340.78;5060829;28;19936;-90
2021/10/06 12:55:21;;;;;;;;;;;;;;;16.68;100.00;99338.69;5058661;28;20371;-90
2021/10/06 12:58:04;;;;;;;;;;;;;;;16.43;100.00;99341.59;5055712;28;20398;-91